Time;durP1;ratioP1;P1;durP2;ratioP2;P2;SDS_P1;SDS_P2;PMS_P1;PMS_P2;Temp;Humidity;BMP_temperature;BMP_pressure;BME280_temperature;BME280_humidity;BME280_pressure;Samples;Min_cycle;Max_cycle;Signal;HPM_P1;HPM_P2
2023/07/05 00:00:53;;;;;;;36.77;23.18;;;;;;;16.76;58.92;100232.83;1828506;77;27540;-57
2023/07/05 00:03:21;;;;;;;38.28;24.95;;;;;;;16.76;59.17;100226.00;1807102;79;25622;-56
2023/07/05 00:05:48;;;;;;;35.28;22.98;;;;;;;16.75;59.10;100225.80;1840219;78;25443;-53
2023/07/05 00:08:15;;;;;;;38.55;24.05;;;;;;;16.73;59.54;100227.28;1807127;79;25484;-53
2023/07/05 00:10:41;;;;;;;35.88;22.42;;;;;;;16.69;59.59;100226.41;1840150;78;25553;-55
2023/07/05 00:13:07;;;;;;;35.95;22.75;;;;;;;16.64;59.52;100231.55;1807157;79;27532;-52
2023/07/05 00:15:34;;;;;;;36.53;22.98;;;;;;;16.61;59.60;100232.25;1840025;78;27401;-54
2023/07/05 00:18:01;;;;;;;37.13;23.35;;;;;;;16.59;59.82;100235.91;1807148;79;25401;-53
2023/07/05 00:20:27;;;;;;;39.83;24.50;;;;;;;16.53;59.60;100239.48;1840081;78;25563;-52
2023/07/05 00:22:53;;;;;;;37.48;23.67;;;;;;;16.50;59.72;100239.36;1807138;79;25451;-54
2023/07/05 00:25:20;;;;;;;36.05;22.98;;;;;;;16.47;59.83;100240.86;1840144;78;27658;-55
2023/07/05 00:27:48;;;;;;;38.98;23.45;;;;;;;16.45;60.09;100240.43;1807017;79;25417;-55
2023/07/05 00:30:16;;;;;;;35.28;22.80;;;;;;;16.44;60.33;100242.92;1840123;78;25537;-56
2023/07/05 00:32:42;;;;;;;40.20;22.42;;;;;;;16.41;60.24;100243.62;1807128;79;25569;-53
2023/07/05 00:35:09;;;;;;;36.05;23.10;;;;;;;16.40;60.29;100242.05;1840174;78;25399;-55
2023/07/05 00:37:35;;;;;;;36.60;23.35;;;;;;;16.37;60.22;100235.34;1807129;79;27658;-55
2023/07/05 00:40:01;;;;;;;35.03;23.10;;;;;;;16.35;60.45;100235.48;1840022;78;25868;-55
2023/07/05 00:42:27;;;;;;;34.30;21.93;;;;;;;16.32;60.36;100242.41;1807092;79;25481;-53
2023/07/05 00:45:14;;;;;;;36.48;22.27;;;;;;;16.29;60.38;100240.37;1840106;78;25514;-56
2023/07/05 00:47:45;;;;;;;35.03;22.98;;;;;;;16.25;60.55;100237.55;1702847;83;25460;-56
2023/07/05 00:50:25;;;;;;;35.05;22.65;;;;;;;16.22;60.71;100240.19;1711239;83;27683;-53
2023/07/05 00:52:53;;;;;;;36.03;22.20;;;;;;;16.17;60.92;100234.98;1711387;83;25591;-54
2023/07/05 00:55:21;;;;;;;36.95;22.65;;;;;;;16.10;60.54;100238.88;1711429;83;25456;-57
2023/07/05 00:57:48;;;;;;;39.73;23.80;;;;;;;16.06;60.95;100238.79;1711255;83;25604;-57
2023/07/05 01:00:19;;;;;;;36.58;23.25;;;;;;;16.02;60.88;100239.24;1706548;83;25592;-53
2023/07/05 01:02:50;;;;;;;34.18;22.70;;;;;;;15.97;60.82;100240.30;1696457;84;28030;-54
2023/07/05 01:05:18;;;;;;;37.95;23.27;;;;;;;15.93;61.41;100244.06;1690702;84;25621;-54
2023/07/05 01:07:45;;;;;;;38.23;22.90;;;;;;;15.88;61.19;100241.00;1696413;84;25590;-55
2023/07/05 01:10:24;;;;;;;39.03;23.55;;;;;;;15.82;61.23;100243.77;1696363;84;25646;-53
2023/07/05 01:13:16;;;;;;;38.42;23.47;;;;;;;15.77;61.28;100246.73;1696571;84;25598;-53
2023/07/05 01:15:51;;;;;;;35.73;22.98;;;;;;;15.73;61.84;100247.94;1696413;84;27561;-52
2023/07/05 01:18:38;;;;;;;36.60;22.98;;;;;;;15.68;61.75;100248.99;1696354;84;25731;-57
2023/07/05 01:21:18;;;;;;;37.90;24.27;;;;;;;15.63;61.79;100251.14;1696370;84;25558;-54
2023/07/05 01:23:59;;;;;;;34.70;22.35;;;;;;;15.58;61.96;100248.65;1702415;80;27824;-55
2023/07/05 01:26:58;;;;;;;39.95;24.30;;;;;;;15.51;61.87;100246.53;1782502;80;25399;-56
2023/07/05 01:30:02;;;;;;;37.45;23.57;;;;;;;15.48;62.67;100256.75;1708936;83;27508;-56
2023/07/05 01:32:34;;;;;;;39.67;23.12;;;;;;;15.43;62.65;100257.77;1709949;83;25594;-54
2023/07/05 01:35:20;;;;;;;39.78;24.00;;;;;;;15.36;63.14;100252.11;1709991;83;25638;-53
2023/07/05 01:37:46;;;;;;;38.33;24.12;;;;;;;15.30;62.72;100250.16;1709964;83;25576;-57
2023/07/05 01:40:27;;;;;;;41.02;24.00;;;;;;;15.26;62.68;100258.02;1710004;83;25530;-53
2023/07/05 01:42:58;;;;;;;38.35;24.47;;;;;;;15.21;62.71;100247.34;1710043;83;26961;-54
2023/07/05 01:45:56;;;;;;;43.83;23.83;;;;;;;15.16;63.28;100247.00;1740087;82;25644;-56
2023/07/05 01:48:49;;;;;;;42.25;24.90;;;;;;;15.09;62.95;100239.97;1740581;82;25611;-53
2023/07/05 01:51:39;;;;;;;38.58;24.45;;;;;;;15.03;63.71;100247.55;1740639;82;25510;-54
2023/07/05 01:54:27;;;;;;;40.50;24.60;;;;;;;14.94;63.71;100250.97;1740737;82;25643;-54
2023/07/05 01:57:09;;;;;;;42.33;24.60;;;;;;;14.90;64.38;100249.48;1740723;82;27686;-55
2023/07/05 01:59:59;;;;;;;36.77;23.32;;;;;;;14.87;64.72;100248.80;1742839;81;25712;-52
2023/07/05 02:02:36;;;;;;;40.60;24.80;;;;;;;14.86;64.44;100245.05;1774118;80;25429;-56
2023/07/05 02:05:05;;;;;;;37.67;24.67;;;;;;;14.82;64.93;100258.55;1773769;80;25828;-55
2023/07/05 02:07:33;;;;;;;39.90;24.10;;;;;;;14.78;64.77;100259.02;1774246;80;25596;-53
2023/07/05 02:10:01;;;;;;;39.00;24.20;;;;;;;14.74;65.05;100256.72;1774095;80;27525;-54
2023/07/05 02:12:29;;;;;;;38.80;24.90;;;;;;;14.69;64.70;100252.30;1774020;80;25385;-54
2023/07/05 02:14:57;;;;;;;40.28;23.55;;;;;;;14.62;64.81;100252.05;1841818;77;25613;-57
2023/07/05 02:17:23;;;;;;;40.30;24.12;;;;;;;14.57;65.10;100265.84;1841792;77;25518;-52
2023/07/05 02:19:50;;;;;;;40.40;24.30;;;;;;;14.52;65.56;100262.78;1841824;77;25566;-56
2023/07/05 02:22:18;;;;;;;39.45;23.47;;;;;;;14.51;65.58;100261.75;1841804;77;27508;-52
2023/07/05 02:24:49;;;;;;;39.73;25.05;;;;;;;14.47;65.77;100265.72;1841724;77;25604;-52
2023/07/05 02:27:14;;;;;;;42.75;25.37;;;;;;;14.45;65.75;100264.45;1841678;77;25553;-54
2023/07/05 02:29:40;;;;;;;36.30;23.15;;;;;;;14.44;66.30;100256.05;1841744;77;25553;-52
2023/07/05 02:32:08;;;;;;;38.95;24.30;;;;;;;14.45;66.39;100265.81;1841829;77;25371;-52
2023/07/05 02:34:40;;;;;;;39.53;23.75;;;;;;;14.46;66.69;100266.05;1841817;77;27423;-53
2023/07/05 02:37:09;;;;;;;37.75;24.45;;;;;;;14.46;66.62;100267.41;1841745;77;25822;-53
2023/07/05 02:39:35;;;;;;;44.60;24.45;;;;;;;14.44;66.47;100271.83;1841906;77;25444;-53
2023/07/05 02:42:04;;;;;;;39.88;24.85;;;;;;;14.44;66.57;100275.09;1841770;77;25548;-56
2023/07/05 02:44:31;;;;;;;41.40;25.15;;;;;;;14.38;66.45;100278.02;1841958;77;25458;-53
2023/07/05 02:46:57;;;;;;;43.70;24.25;;;;;;;14.34;66.50;100276.33;1841769;77;28170;-55
2023/07/05 02:49:23;;;;;;;49.42;24.75;;;;;;;14.35;67.17;100283.34;1841669;77;25438;-53
2023/07/05 02:51:51;;;;;;;37.42;24.27;;;;;;;14.35;67.34;100275.17;1841753;77;25539;-51
2023/07/05 02:54:18;;;;;;;39.58;24.85;;;;;;;14.37;67.43;100279.17;1841734;77;25553;-53
2023/07/05 02:56:44;;;;;;;44.35;24.18;;;;;;;14.39;67.59;100289.15;1841799;77;25523;-54
2023/07/05 02:59:10;;;;;;;38.92;24.90;;;;;;;14.44;67.62;100290.06;1841768;77;29717;-55
2023/07/05 03:01:37;;;;;;;41.60;25.35;;;;;;;14.48;67.96;100290.42;1853021;76;25451;-51
2023/07/05 03:04:05;;;;;;;40.52;24.15;;;;;;;14.54;67.93;100292.36;1859058;77;25542;-51
2023/07/05 03:06:32;;;;;;;37.10;23.15;;;;;;;14.57;68.03;100288.43;1859057;77;25606;-54
2023/07/05 03:08:58;;;;;;;43.73;24.60;;;;;;;14.61;67.97;100287.22;1772751;81;25434;-55
2023/07/05 03:11:24;;;;;;;40.40;24.43;;;;;;;14.63;67.78;100292.33;1804450;79;27458;-56
2023/07/05 03:13:50;;;;;;;43.30;24.65;;;;;;;14.66;67.95;100292.45;1804400;79;25402;-54
2023/07/05 03:16:17;;;;;;;42.40;25.45;;;;;;;14.69;67.86;100293.69;1804490;79;25604;-52
2023/07/05 03:18:43;;;;;;;41.92;25.68;;;;;;;14.72;67.73;100293.02;1804391;79;27778;-52
2023/07/05 03:21:09;;;;;;;38.40;23.75;;;;;;;14.76;67.80;100292.56;1804549;79;25512;-55
2023/07/05 03:23:35;;;;;;;40.52;24.80;;;;;;;14.79;67.90;100285.09;1804682;78;27467;-53
2023/07/05 03:26:07;;;;;;;40.75;25.23;;;;;;;14.84;67.84;100281.36;1804533;79;25522;-53
2023/07/05 03:28:36;;;;;;;42.43;25.57;;;;;;;14.85;67.82;100287.83;1804696;79;25373;-54
2023/07/05 03:31:08;;;;;;;41.23;24.00;;;;;;;14.92;67.96;100292.73;1804752;79;26122;-54
2023/07/05 03:33:35;;;;;;;40.67;24.70;;;;;;;14.96;67.92;100297.71;1803052;78;25444;-55
2023/07/05 03:36:17;;;;;;;40.48;25.12;;;;;;;14.99;67.53;100291.59;1795882;79;27436;-55
2023/07/05 03:38:45;;;;;;;37.42;23.30;;;;;;;15.02;67.70;100295.59;1795612;79;25558;-56
2023/07/05 03:41:16;;;;;;;40.90;25.15;;;;;;;15.07;67.74;100294.78;1796067;78;25385;-56
2023/07/05 03:43:47;;;;;;;37.83;24.55;;;;;;;15.11;67.72;100300.34;1796460;79;25562;-56
2023/07/05 03:46:16;;;;;;;38.88;24.52;;;;;;;15.16;67.75;100303.42;1772918;80;25558;-56
2023/07/05 03:48:46;;;;;;;40.98;24.92;;;;;;;15.20;67.68;100296.94;1796180;79;27519;-53
2023/07/05 03:51:17;;;;;;;42.75;25.10;;;;;;;15.24;67.70;100297.08;1795763;79;25351;-54
2023/07/05 03:53:46;;;;;;;42.25;24.70;;;;;;;15.28;67.60;100296.61;1795914;79;25569;-54
2023/07/05 03:56:12;;;;;;;37.42;24.57;;;;;;;15.31;67.60;100298.09;1795779;79;26270;-55
2023/07/05 03:58:39;;;;;;;35.88;23.92;;;;;;;15.36;67.61;100298.98;1795890;79;25547;-56
2023/07/05 04:01:14;;;;;;;37.40;23.45;;;;;;;15.39;67.68;100305.94;1794953;79;28277;-52
2023/07/05 04:03:38;;;;;;;39.03;23.70;;;;;;;15.43;67.65;100303.32;1769874;80;25418;-54
2023/07/05 04:06:05;;;;;;;37.42;22.80;;;;;;;15.49;67.82;100301.94;1787175;80;25392;-55
2023/07/05 04:08:31;;;;;;;40.78;24.12;;;;;;;15.56;67.96;100300.81;1770435;80;25555;-53
2023/07/05 04:10:58;;;;;;;37.58;24.02;;;;;;;15.64;68.00;100299.09;1787221;79;25409;-57
2023/07/05 04:13:24;;;;;;;40.75;23.90;;;;;;;15.72;68.13;100298.75;1770381;81;27495;-55
2023/07/05 04:16:03;;;;;;;38.50;24.70;;;;;;;15.80;68.18;100301.37;1787052;80;25374;-52
2023/07/05 04:18:32;;;;;;;39.42;23.22;;;;;;;15.89;68.19;100303.19;1770569;81;25509;-54
2023/07/05 04:21:00;;;;;;;33.83;23.25;;;;;;;15.99;68.08;100309.52;1787254;80;25532;-52
2023/07/05 04:23:27;;;;;;;40.50;24.57;;;;;;;16.09;68.05;100310.95;1770435;81;25433;-57
2023/07/05 04:26:06;;;;;;;36.53;23.73;;;;;;;16.17;68.15;100308.08;1787148;80;27484;-58
2023/07/05 04:28:34;;;;;;;37.10;23.18;;;;;;;16.25;68.21;100309.88;1769733;81;25603;-58
2023/07/05 04:31:02;;;;;;;40.20;23.75;;;;;;;16.37;68.17;100317.22;1787432;80;25445;-60
2023/07/05 04:33:29;;;;;;;37.50;24.77;;;;;;;16.48;68.07;100316.72;1770347;81;25616;-60
2023/07/05 04:35:59;;;;;;;37.33;23.65;;;;;;;16.56;67.95;100321.24;1787180;80;25611;-60
2023/07/05 04:38:27;;;;;;;37.53;23.27;;;;;;;16.62;67.81;100323.95;1770362;81;27547;-60
2023/07/05 04:40:57;;;;;;;42.13;23.38;;;;;;;16.72;67.77;100315.80;1787024;80;25593;-60
2023/07/05 04:43:28;;;;;;;44.42;24.00;;;;;;;16.83;67.80;100320.98;1770358;80;25566;-60
2023/07/05 04:45:58;;;;;;;36.08;23.80;;;;;;;16.94;67.75;100319.91;1787109;80;25495;-59
2023/07/05 04:48:28;;;;;;;37.60;23.02;;;;;;;17.05;67.72;100322.36;1770489;81;25547;-60
2023/07/05 04:50:57;;;;;;;33.88;22.62;;;;;;;17.17;67.51;100320.12;1787178;80;27462;-60
2023/07/05 04:53:27;;;;;;;35.35;22.37;;;;;;;17.29;67.25;100318.65;1770436;81;25682;-59
2023/07/05 04:55:57;;;;;;;34.08;22.27;;;;;;;17.41;67.08;100322.44;1787287;80;25425;-59
2023/07/05 04:58:25;;;;;;;32.55;21.55;;;;;;;17.52;66.82;100324.84;1770332;81;25541;-57
2023/07/05 05:00:55;;;;;;;33.03;21.10;;;;;;;17.64;66.63;100315.73;1790240;78;25606;-59
2023/07/05 05:03:23;;;;;;;33.60;21.27;;;;;;;17.76;66.46;100321.11;1828758;78;27526;-60
2023/07/05 05:05:54;;;;;;;35.13;19.67;;;;;;;17.88;66.24;100321.02;1807299;79;25530;-58
2023/07/05 05:08:23;;;;;;;30.35;18.85;;;;;;;18.01;66.10;100325.77;1839952;78;25522;-59
2023/07/05 05:10:51;;;;;;;;;;;;;;;18.16;65.90;100329.60;1786422;79;25583;-58
2023/07/05 05:13:18;;;;;;;29.42;18.55;;;;;;;18.27;65.11;100329.25;1806392;79;25547;-58
2023/07/05 05:15:44;;;;;;;28.95;18.80;;;;;;;18.37;65.13;100329.27;1806436;79;27595;-58
2023/07/05 05:18:11;;;;;;;27.30;18.00;;;;;;;18.49;64.89;100331.06;1806334;79;25593;-59
2023/07/05 05:20:41;;;;;;;29.02;18.32;;;;;;;18.61;64.83;100328.71;1839374;78;25804;-56
2023/07/05 05:23:07;;;;;;;33.45;17.30;;;;;;;18.76;64.70;100329.78;1806391;79;25580;-58
2023/07/05 05:25:35;;;;;;;28.85;17.75;;;;;;;18.90;64.49;100329.27;1840207;78;25552;-57
2023/07/05 05:28:02;;;;;;;27.25;17.30;;;;;;;19.03;64.15;100331.49;1807139;79;27659;-57
2023/07/05 05:30:31;;;;;;;28.17;16.93;;;;;;;19.17;63.76;100329.56;1839989;78;25690;-58
2023/07/05 05:32:57;;;;;;;30.12;16.73;;;;;;;19.29;63.24;100329.95;1807084;79;25595;-57
2023/07/05 05:35:24;;;;;;;26.33;15.58;;;;;;;19.42;63.00;100337.39;1840032;78;25538;-58
2023/07/05 05:37:51;;;;;;;26.75;16.15;;;;;;;19.55;62.99;100339.36;1807065;79;25546;-57
2023/07/05 05:40:18;;;;;;;24.47;15.38;;;;;;;19.70;62.82;100334.86;1840133;78;27505;-58
2023/07/05 05:42:45;;;;;;;25.72;16.27;;;;;;;19.83;62.09;100336.84;1807139;79;25845;-58
2023/07/05 05:45:12;;;;;;;24.70;16.05;;;;;;;19.95;61.92;100338.80;1840038;78;25415;-58
2023/07/05 05:47:38;;;;;;;24.30;15.03;;;;;;;20.10;61.83;100341.13;1807047;79;26270;-58
2023/07/05 05:50:07;;;;;;;25.92;15.43;;;;;;;20.24;61.29;100337.77;1840091;78;25570;-57
2023/07/05 05:52:35;;;;;;;24.98;15.78;;;;;;;20.38;61.01;100329.50;1807216;79;29676;-58
2023/07/05 05:55:03;;;;;;;27.07;15.53;;;;;;;20.53;60.62;100337.55;1839986;78;25430;-58
2023/07/05 05:57:30;;;;;;;23.98;15.15;;;;;;;20.67;60.45;100343.80;1807101;79;25419;-58
2023/07/05 05:59:56;;;;;;;18.35;12.43;;;;;;;20.80;59.88;100334.70;1840044;78;25578;-57
2023/07/05 06:02:23;;;;;;;21.80;13.88;;;;;;;20.92;58.78;100334.22;1805466;79;25607;-58
2023/07/05 06:04:50;;;;;;;22.42;14.00;;;;;;;21.02;58.56;100330.19;1837372;78;27493;-54
2023/07/05 06:07:17;;;;;;;29.37;15.25;;;;;;;21.15;58.11;100340.92;1804402;79;26125;-58
2023/07/05 06:09:48;;;;;;;22.27;14.25;;;;;;;21.27;58.05;100337.28;1837352;78;25527;-56
2023/07/05 06:12:16;;;;;;;20.12;12.30;;;;;;;21.40;57.22;100340.54;1804507;79;26217;-58
2023/07/05 06:14:42;;;;;;;27.52;13.30;;;;;;;21.53;56.85;100336.13;1837422;78;25600;-58
2023/07/05 06:17:11;;;;;;;19.52;13.00;;;;;;;21.66;56.73;100335.22;1804432;79;27526;-58
2023/07/05 06:19:39;;;;;;;19.32;12.65;;;;;;;21.79;55.86;100334.54;1837477;78;30042;-59
2023/07/05 06:22:06;;;;;;;19.60;12.65;;;;;;;21.89;55.08;100332.22;1804423;79;25451;-57
2023/07/05 06:24:32;;;;;;;21.33;11.78;;;;;;;21.99;54.89;100330.89;1837341;78;25555;-58
2023/07/05 06:27:01;;;;;;;19.20;11.43;;;;;;;22.11;54.77;100333.89;1804474;79;25441;-57
2023/07/05 06:29:28;;;;;;;;;;;;;;;22.24;53.81;100338.48;1840105;78;28168;-56
2023/07/05 06:31:54;;;;;;;18.60;10.85;;;;;;;22.36;53.00;100340.14;1837299;78;26095;-58
2023/07/05 06:34:21;;;;;;;19.87;10.68;;;;;;;22.47;52.55;100334.66;1804485;79;25539;-57
2023/07/05 06:36:47;;;;;;;17.60;11.25;;;;;;;22.60;52.44;100336.48;1837222;78;25493;-57
2023/07/05 06:39:14;;;;;;;17.80;11.48;;;;;;;22.73;51.88;100337.66;1804464;79;25436;-58
2023/07/05 06:41:41;;;;;;;19.37;10.68;;;;;;;22.89;51.60;100334.55;1837286;78;27558;-58
2023/07/05 06:44:07;;;;;;;18.70;10.85;;;;;;;23.06;50.84;100335.19;1804394;79;25831;-57
2023/07/05 06:46:33;;;;;;;18.30;10.40;;;;;;;23.19;51.00;100334.78;1837352;78;25566;-58
2023/07/05 06:48:59;;;;;;;16.07;10.00;;;;;;;23.37;50.61;100338.34;1804470;79;25409;-58
2023/07/05 06:51:26;;;;;;;15.15;9.18;;;;;;;23.54;50.14;100334.58;1837424;78;25642;-58
2023/07/05 06:53:52;;;;;;;17.62;9.88;;;;;;;23.73;49.61;100327.84;1804419;79;27514;-57
2023/07/05 06:56:18;;;;;;;16.12;9.35;;;;;;;23.89;49.18;100332.95;1837292;78;25775;-58
2023/07/05 06:58:47;;;;;;;17.27;10.00;;;;;;;24.07;48.51;100325.39;1804441;79;25371;-59
2023/07/05 07:01:13;;;;;;;17.40;9.63;;;;;;;24.23;48.09;100328.48;1837447;78;25525;-59
2023/07/05 07:03:40;;;;;;;18.10;10.03;;;;;;;24.39;47.60;100332.76;1804461;79;25348;-58
2023/07/05 07:06:07;;;;;;;15.32;9.68;;;;;;;24.54;46.94;100330.14;1837292;78;28195;-59
2023/07/05 07:08:38;;;;;;;15.32;10.58;;;;;;;24.70;46.55;100334.39;1804335;79;25585;-58
2023/07/05 07:11:10;;;;;;;16.42;9.75;;;;;;;24.86;46.39;100324.20;1837395;78;25549;-57
2023/07/05 07:13:37;;;;;;;15.80;10.43;;;;;;;25.06;46.41;100324.45;1804475;79;25583;-58
2023/07/05 07:16:11;;;;;;;21.15;12.15;;;;;;;25.18;45.48;100318.41;1837380;78;25407;-59
2023/07/05 07:18:40;;;;;;;17.23;11.03;;;;;;;25.33;44.88;100332.95;1804455;79;27473;-59
2023/07/05 07:21:09;;;;;;;18.87;11.15;;;;;;;25.39;44.39;100334.67;1837177;78;25872;-59
2023/07/05 07:23:37;;;;;;;17.73;11.48;;;;;;;25.50;44.35;100327.84;1804523;79;25593;-56
2023/07/05 07:26:09;;;;;;;19.57;11.30;;;;;;;25.63;43.90;100334.27;1837579;78;25589;-59
2023/07/05 07:28:37;;;;;;;17.98;11.60;;;;;;;25.67;43.44;100327.47;1804405;79;25574;-59
2023/07/05 07:31:20;;;;;;;18.82;11.90;;;;;;;25.73;42.48;100327.22;1837445;78;28110;-59
2023/07/05 07:33:48;;;;;;;15.70;11.38;;;;;;;25.73;42.48;100327.22;1804364;79;25452;-60
2023/07/05 07:36:20;;;;;;;20.45;12.73;;;;;;;25.83;42.66;100320.00;1837625;78;25384;-59
2023/07/05 07:38:47;;;;;;;16.90;11.97;;;;;;;25.94;43.11;100323.25;1804459;79;25728;-59
2023/07/05 07:41:28;;;;;;;20.17;12.60;;;;;;;26.17;42.80;100327.55;1837328;78;25578;-60
2023/07/05 07:44:01;;;;;;;17.87;12.13;;;;;;;26.28;42.27;100317.70;1804424;79;28020;-59
2023/07/05 07:46:30;;;;;;;20.62;12.28;;;;;;;26.41;42.18;100320.10;1837273;78;25530;-60
2023/07/05 07:49:00;;;;;;;21.23;13.20;;;;;;;26.57;41.72;100324.24;1804459;79;25628;-59
2023/07/05 07:51:32;;;;;;;19.25;12.90;;;;;;;26.71;41.20;100326.83;1837371;78;26393;-59
2023/07/05 07:54:01;;;;;;;26.52;13.38;;;;;;;26.88;41.26;100316.66;1804524;79;25391;-60
2023/07/05 07:56:30;;;;;;;18.52;12.68;;;;;;;27.15;41.38;100316.62;1837454;78;27404;-59
2023/07/05 07:58:59;;;;;;;19.40;13.08;;;;;;;27.43;40.57;100318.77;1804322;79;25594;-59
2023/07/05 08:01:33;;;;;;;24.75;13.43;;;;;;;27.62;40.02;100317.80;1837445;78;34649;-59
2023/07/05 08:04:03;;;;;;;20.30;13.60;;;;;;;27.75;39.61;100307.63;1804367;79;25752;-58
2023/07/05 08:06:33;;;;;;;23.18;13.43;;;;;;;27.90;39.70;100317.25;1837410;78;25542;-58
2023/07/05 08:09:00;;;;;;;18.15;12.18;;;;;;;28.10;39.48;100311.72;1804651;79;27639;-58
2023/07/05 08:11:26;;;;;;;17.90;12.45;;;;;;;28.23;38.68;100317.42;1837655;78;25598;-59
2023/07/05 08:13:53;;;;;;;22.55;12.68;;;;;;;28.32;37.69;100314.05;1805434;79;25525;-58
2023/07/05 08:16:19;;;;;;;19.17;12.43;;;;;;;28.44;37.88;100316.16;1838412;78;25587;-59
2023/07/05 08:18:45;;;;;;;22.62;14.95;;;;;;;28.73;37.37;100322.50;1805615;79;25210;-62
2023/07/05 08:21:14;;;;;;;22.30;16.10;;;;;;;28.94;36.70;100321.19;1837680;78;27414;-62
2023/07/05 08:23:44;;;;;;;69.07;63.98;;;;;;;29.08;37.02;100312.31;1804536;79;25603;-62
2023/07/05 08:26:13;;;;;;;70.35;65.50;;;;;;;29.37;35.91;100308.21;1837460;78;25498;-62
2023/07/05 08:28:41;;;;;;;20.30;11.57;;;;;;;29.44;35.25;100305.26;1804608;79;25459;-62
2023/07/05 08:31:09;;;;;;;18.48;11.57;;;;;;;29.64;34.98;100316.24;1837675;78;25552;-62
2023/07/05 08:33:39;;;;;;;20.90;13.57;;;;;;;29.79;35.22;100313.88;1804828;79;27487;-62
2023/07/05 08:36:17;;;;;;;72.10;67.20;;;;;;;29.99;34.47;100308.91;1837355;78;25508;-60
2023/07/05 08:38:51;;;;;;;74.32;69.05;;;;;;;30.17;34.17;100297.83;1804553;79;25379;-67
2023/07/05 08:41:44;;;;;;;69.05;63.80;;;;;;;30.42;33.66;100296.34;1837366;78;26138;-57
2023/07/05 08:44:24;;;;;;;72.08;66.35;;;;;;;30.63;32.69;100290.09;1710589;83;25712;-53
2023/07/05 08:47:11;;;;;;;70.95;65.40;;;;;;;30.64;32.50;100251.16;1734996;82;27460;-58
2023/07/05 08:49:44;;;;;;;67.58;62.48;;;;;;;31.08;31.81;100281.27;1735065;82;25472;-55
2023/07/05 08:52:27;;;;;;;69.62;64.00;;;;;;;28.21;31.94;99808.86;1735133;82;25648;-52
2023/07/05 08:54:58;;;;;;;68.15;62.58;;;;;;;28.13;31.19;99802.13;1735350;82;25517;-55
2023/07/05 08:57:29;;;;;;;28.27;26.23;;;;;;;27.89;31.15;99727.95;1735184;82;25559;-59
2023/07/05 09:00:00;;;;;;;51.30;47.67;;;;;;;;;;1735167;82;27543;-60
2023/07/05 09:02:27;;;;;;;70.60;65.60;;;;;;;;;;1750868;81;25634;-59
2023/07/05 09:04:57;;;;;;;70.08;65.15;;;;;;;;;;1730551;82;25535;-61
2023/07/05 09:07:54;;;;;;;65.42;59.93;;;;;;;;;;1730056;82;25577;-61
2023/07/05 09:10:24;;;;;;;69.15;64.00;;;;;;;;;;1730413;82;25553;-59
2023/07/05 09:13:15;;;;;;;66.12;61.13;;;;;;;;;;1729991;82;27602;-60
2023/07/05 09:15:57;;;;;;;75.22;69.42;;;;;;;;;;1730249;82;25870;-62
2023/07/05 09:18:45;;;;;;;69.70;63.87;;;;;;;;;;1730504;82;25671;-60
2023/07/05 09:21:30;;;;;;;69.60;63.73;;;;;;;;;;1742763;82;26120;-54
2023/07/05 09:24:20;;;;;;;69.82;64.67;;;;;;;;;;1784643;77;25069;-51
2023/07/05 09:26:51;;;;;;;68.42;62.48;;;;;;;;;;1888242;76;27243;-54
2023/07/05 09:29:30;;;;;;;45.50;41.90;;;;;;;;;;1888198;76;25221;-51
2023/07/05 09:32:01;;;;;;;47.10;43.00;;;;;;;;;;1888246;76;25442;-50
2023/07/05 09:34:48;;;;;;;6.08;5.78;;;;;;;;;;1888103;76;25599;-51
2023/07/05 09:37:21;;;;;;;45.73;42.35;;;;;;;;;;1888229;76;25425;-51
2023/07/05 09:40:16;;;;;;;70.50;64.92;;;;;;;;;;1888152;76;29507;-51
2023/07/05 09:42:59;;;;;;;67.58;62.50;;;;;;;;;;1888058;76;25275;-52
2023/07/05 09:45:27;;;;;;;67.35;62.15;;;;;;;;;;1886179;76;25483;-51
2023/07/05 09:48:01;;;;;;;60.63;56.33;;;;;;;;;;1888131;76;25563;-51
2023/07/05 09:50:30;;;;;;;46.50;42.67;;;;;;;;;;1888189;76;25309;-53
2023/07/05 09:53:17;;;;;;;67.80;61.83;;;;;;;;;;1888167;76;27357;-52
2023/07/05 09:56:08;;;;;;;6.33;6.08;;;;;;;;;;1886656;76;25877;-51
2023/07/05 09:58:37;;;;;;;51.95;47.13;;;;;;;;;;1888072;76;25444;-51
2023/07/05 10:01:21;;;;;;;71.22;66.47;;;;;;;;;;1886887;76;26466;-54
2023/07/05 10:03:57;;;;;;;73.20;68.28;;;;;;;;;;1868473;76;25386;-55
2023/07/05 10:06:26;;;;;;;69.97;65.20;;;;;;;;;;1858310;77;28012;-52
2023/07/05 10:08:56;;;;;;;70.57;65.62;;;;;;;;;;1859045;77;25347;-50
2023/07/05 10:11:33;;;;;;;66.72;61.83;;;;;;;;;;1859078;77;25512;-50
2023/07/05 10:14:13;;;;;;;70.55;64.92;;;;;;;;;;1858442;76;25524;-50
2023/07/05 10:17:07;;;;;;;69.05;64.10;;;;;;;;;;1857445;76;25331;-52
2023/07/05 10:19:51;;;;;;;67.55;62.55;;;;;;;;;;1859097;77;27217;-51
2023/07/05 10:22:27;;;;;;;69.37;64.55;;;;;;;;;;1816140;79;25355;-59
2023/07/05 10:25:03;;;;;;;73.62;68.47;;;;;;;;;;1798848;79;25285;-66
2023/07/05 10:27:34;;;;;;;71.53;65.87;;;;;;;;;;1816314;78;26456;-68
2023/07/05 10:30:15;;;;;;;71.25;65.90;;;;;;;;;;1815689;79;25461;-67
2023/07/05 10:32:45;;;;;;;72.50;67.27;;;;;;;;;;1798658;79;27540;-63
2023/07/05 10:35:18;;;;;;;81.55;75.25;;;;;;;;;;1816274;78;25426;-64
2023/07/05 10:37:47;;;;;;;73.92;68.67;;;;;;;;;;1816257;79;25507;-66
2023/07/05 10:40:17;;;;;;;74.07;68.40;;;;;;;;;;1798946;79;25546;-66
2023/07/05 10:42:50;;;;;;;37.93;34.18;;;;;;;;;;1816273;78;25528;-65
2023/07/05 10:45:19;;;;;;;72.97;67.85;;;;;;;;;;1798704;79;27307;-67
2023/07/05 10:47:52;;;;;;;74.37;69.15;;;;;;;;;;1816225;78;25537;-65
2023/07/05 10:50:36;;;;;;;73.17;67.85;;;;;;;;;;1798832;79;25222;-68
2023/07/05 10:53:09;;;;;;;73.33;68.20;;;;;;;;;;1798641;79;25575;-68
2023/07/05 10:55:40;;;;;;;72.60;67.70;;;;;;;;;;1797858;79;25367;-74
2023/07/05 10:58:10;;;;;;;73.97;68.15;;;;;;;;;;1795184;79;28053;-76
2023/07/05 11:00:41;;;;;;;74.27;69.03;;;;;;;;;;1771175;80;25636;-71
2023/07/05 11:03:18;;;;;;;73.80;68.47;;;;;;;;;;1775795;79;25544;-74
2023/07/05 11:05:51;;;;;;;74.85;69.27;;;;;;;;;;1820713;78;25672;-72
2023/07/05 11:08:23;;;;;;;74.35;68.55;;;;;;;;;;1774216;80;25438;-71
2023/07/05 11:10:52;;;;;;;76.90;71.12;;;;;;;;;;1800444;79;27400;-71
2023/07/05 11:13:20;;;;;;;75.40;69.50;;;;;;;;;;1864807;77;25266;-70
2023/07/05 11:15:47;;;;;;;75.57;70.00;;;;;;;;;;1864850;77;25332;-70
2023/07/05 11:18:18;;;;;;;76.22;70.08;;;;;;;;;;1865004;77;25580;-69
2023/07/05 11:20:51;;;;;;;77.45;71.85;;;;;;;;;;1864887;77;25483;-69
2023/07/05 11:23:44;;;;;;;78.20;72.42;;;;;;;;;;1864827;77;27312;-70
2023/07/05 11:26:13;;;;;;;73.62;68.57;;;;;;;;;;1864900;77;25599;-69
2023/07/05 11:28:43;;;;;;;76.87;71.50;;;;;;;;;;1862460;76;25492;-69
2023/07/05 11:31:28;;;;;;;75.00;69.75;;;;;;;;;;1864797;77;26126;-70
2023/07/05 11:34:23;;;;;;;77.58;72.15;;;;;;;;;;1864878;76;25436;-69
2023/07/05 11:37:07;;;;;;;19.90;14.53;;;;;;;;;;1864551;77;27382;-70
2023/07/05 11:39:51;;;;;;;18.98;13.70;;;;;;;;;;1863226;76;25616;-69
2023/07/05 11:42:24;;;;;;;22.77;15.45;;;;;;;;;;1863409;77;25532;-69
2023/07/05 11:44:57;;;;;;;23.60;15.60;;;;;;;;;;1864546;76;25535;-68
2023/07/05 11:47:34;;;;;;;18.48;14.13;;;;;;;;;;1865844;76;25430;-68
2023/07/05 11:50:09;;;;;;;16.57;12.85;;;;;;;;;;1865093;77;27388;-68
2023/07/05 11:52:39;;;;;;;20.72;14.68;;;;;;;;;;1863563;77;25564;-67
2023/07/05 11:55:13;;;;;;;21.10;14.70;;;;;;;;;;1864992;77;25434;-67
2023/07/05 11:57:52;;;;;;;18.85;14.90;;;;;;;;;;1865028;77;27687;-68
2023/07/05 12:00:29;;;;;;;19.70;14.28;;;;;;;;;;1865065;77;25253;-70
2023/07/05 12:03:21;;;;;;;20.55;15.48;;;;;;;;;;1865732;76;27975;-66
2023/07/05 12:06:27;;;;;;;20.52;15.05;;;;;;;;;;1877909;76;25935;-67
2023/07/05 12:08:58;;;;;;;22.00;14.47;;;;;;;;;;1878864;76;25508;-69
2023/07/05 12:11:37;;;;;;;19.77;14.33;;;;;;;;;;1879386;76;25605;-74
2023/07/05 12:14:14;;;;;;;18.30;14.13;;;;;;;;;;1879410;76;25508;-72